createdAt,value
2023-04-07T00:01:10.484Z,5.30
2023-04-07T00:03:41.496Z,5.77
2023-04-07T00:06:12.084Z,5.62
2023-04-07T00:08:42.344Z,5.74
2023-04-07T00:11:15.600Z,5.55
2023-04-07T00:13:45.661Z,5.51
2023-04-07T00:16:16.295Z,5.41
2023-04-07T00:18:46.324Z,5.28
2023-04-07T00:21:16.496Z,5.30
2023-04-07T00:23:47.229Z,5.07
2023-04-07T00:26:19.985Z,5.16
2023-04-07T00:28:51.050Z,4.61
2023-04-07T00:31:21.494Z,4.95
2023-04-07T00:33:51.791Z,5.32
2023-04-07T00:36:22.106Z,5.18
2023-04-07T00:38:52.223Z,5.30
2023-04-07T00:41:23.970Z,5.19
2023-04-07T00:43:54.639Z,4.82
2023-04-07T00:46:25.754Z,4.26
2023-04-07T00:48:56.439Z,4.34
2023-04-07T00:51:27.758Z,5.11
2023-04-07T00:53:58.443Z,5.34
2023-04-07T00:56:30.973Z,4.76
2023-04-07T00:59:01.245Z,4.88
2023-04-07T01:01:34.940Z,4.74
2023-04-07T01:04:11.169Z,4.65
2023-04-07T01:06:46.893Z,4.73
2023-04-07T01:09:20.257Z,4.89
2023-04-07T01:11:58.706Z,5.24
2023-04-07T01:14:33.240Z,5.31
2023-04-07T01:17:04.117Z,5.09
2023-04-07T01:19:39.046Z,5.22
2023-04-07T01:22:15.715Z,4.46
2023-04-07T01:25:18.325Z,5.21
2023-04-07T01:28:03.139Z,4.66
2023-04-07T01:30:38.777Z,4.94
2023-04-07T01:33:10.264Z,4.53
2023-04-07T01:35:41.713Z,4.63
2023-04-07T01:38:12.561Z,4.52
2023-04-07T01:40:43.900Z,5.09
2023-04-07T01:43:15.469Z,4.50
2023-04-07T01:45:48.005Z,4.84
2023-04-07T01:48:19.048Z,5.19
2023-04-07T01:50:49.910Z,4.50
2023-04-07T01:53:20.859Z,4.86
2023-04-07T01:55:51.781Z,4.84
2023-04-07T01:58:23.398Z,4.66
2023-04-07T02:00:55.329Z,4.37
2023-04-07T02:03:29.888Z,4.27
2023-04-07T02:06:05.440Z,4.45
2023-04-07T02:08:37.779Z,5.09
2023-04-07T02:11:09.539Z,4.98
2023-04-07T02:13:40.527Z,4.57
2023-04-07T02:16:13.416Z,4.39
2023-04-07T02:18:45.724Z,4.97
2023-04-07T02:21:17.906Z,4.84
2023-04-07T02:23:49.644Z,5.27
2023-04-07T02:26:19.477Z,4.83
2023-04-07T02:28:49.435Z,4.81
2023-04-07T02:31:21.272Z,5.17
2023-04-07T02:33:52.144Z,4.77
2023-04-07T02:36:22.464Z,5.09
2023-04-07T02:38:52.914Z,4.67
2023-04-07T02:41:23.114Z,4.64
2023-04-07T02:43:53.878Z,5.22
2023-04-07T02:46:26.064Z,5.29
2023-04-07T02:48:56.375Z,5.15
2023-04-07T02:51:27.405Z,4.87
2023-04-07T02:53:58.341Z,4.83
2023-04-07T02:56:28.333Z,4.62
2023-04-07T02:58:58.851Z,4.97
2023-04-07T03:01:32.342Z,4.54
2023-04-07T03:04:02.560Z,4.77
2023-04-07T03:06:33.879Z,4.38
2023-04-07T03:09:04.724Z,4.93
2023-04-07T03:11:34.677Z,4.96
2023-04-07T03:14:05.433Z,4.36
2023-04-07T03:16:37.931Z,5.09
2023-04-07T03:19:08.154Z,4.47
2023-04-07T03:21:39.585Z,4.57
2023-04-07T03:24:10.742Z,4.83
2023-04-07T03:26:40.670Z,4.68
2023-04-07T03:29:10.618Z,4.94
2023-04-07T03:31:43.405Z,4.68
2023-04-07T03:34:13.416Z,5.02
2023-04-07T03:36:43.508Z,4.46
2023-04-07T03:39:15.134Z,4.78
2023-04-07T03:41:46.433Z,4.77
2023-04-07T03:44:16.614Z,4.34
2023-04-07T03:46:51.743Z,4.36
2023-04-07T03:49:21.522Z,4.68
2023-04-07T03:51:52.204Z,4.71
2023-04-07T03:54:23.228Z,4.86
2023-04-07T03:56:53.664Z,4.60
2023-04-07T03:59:24.393Z,4.99
2023-04-07T04:01:56.677Z,4.03
2023-04-07T04:04:27.109Z,4.41
2023-04-07T04:06:57.367Z,4.55
2023-04-07T04:09:27.870Z,4.92
2023-04-07T04:11:58.328Z,4.48
2023-04-07T04:14:28.970Z,4.58
2023-04-07T04:17:01.292Z,4.84
2023-04-07T04:19:36.373Z,5.21
2023-04-07T04:22:06.553Z,4.93
2023-04-07T04:24:37.565Z,4.32
2023-04-07T04:27:07.574Z,4.06
2023-04-07T04:29:37.885Z,4.03
2023-04-07T04:32:09.903Z,5.09
2023-04-07T04:34:42.401Z,5.21
2023-04-07T04:37:13.039Z,5.45
2023-04-07T04:39:42.900Z,5.42
2023-04-07T04:42:13.298Z,5.25
2023-04-07T04:44:44.911Z,4.66
2023-04-07T04:47:16.630Z,4.57
2023-04-07T04:49:47.324Z,4.89
2023-04-07T04:52:18.101Z,5.15
2023-04-07T04:54:48.837Z,5.25
2023-04-07T04:57:19.236Z,4.84
2023-04-07T04:59:49.493Z,5.16
2023-04-07T05:02:22.355Z,5.31
2023-04-07T05:04:53.543Z,5.17
2023-04-07T05:07:23.449Z,5.04
2023-04-07T05:09:53.515Z,5.12
2023-04-07T05:12:23.625Z,5.00
2023-04-07T05:14:53.988Z,5.32
2023-04-07T05:17:26.648Z,5.47
2023-04-07T05:19:57.063Z,5.25
2023-04-07T05:22:26.918Z,5.62
2023-04-07T05:24:57.448Z,5.82
2023-04-07T05:27:28.074Z,5.61
2023-04-07T05:29:57.700Z,5.80
2023-04-07T05:32:32.674Z,5.82
2023-04-07T05:35:03.370Z,5.63
2023-04-07T05:37:34.244Z,5.63
2023-04-07T05:40:05.143Z,5.86
2023-04-07T05:42:35.365Z,5.37
2023-04-07T05:45:05.693Z,5.40
2023-04-07T05:47:37.575Z,5.18
2023-04-07T05:50:08.985Z,5.41
2023-04-07T05:52:40.350Z,5.71
2023-04-07T05:55:11.247Z,5.79
2023-04-07T05:57:42.085Z,5.71
2023-04-07T06:00:14.019Z,6.08
2023-04-07T06:02:46.453Z,5.58
2023-04-07T06:05:17.563Z,5.35
2023-04-07T06:07:47.504Z,5.92
2023-04-07T06:10:18.004Z,5.70
2023-04-07T06:12:48.321Z,5.64
2023-04-07T06:15:18.457Z,5.79
2023-04-07T06:17:50.228Z,5.74
2023-04-07T06:20:21.965Z,5.51
2023-04-07T06:22:52.241Z,5.69
2023-04-07T06:25:22.419Z,6.03
2023-04-07T06:27:53.069Z,5.80
2023-04-07T06:30:24.152Z,5.57
2023-04-07T06:32:56.559Z,5.80
2023-04-07T06:35:28.459Z,5.78
2023-04-07T06:37:58.930Z,5.73
2023-04-07T06:40:30.489Z,5.65
2023-04-07T06:43:00.311Z,5.95
2023-04-07T06:45:30.635Z,5.59
2023-04-07T06:48:02.494Z,5.78
2023-04-07T06:50:34.035Z,6.03
2023-04-07T06:53:03.524Z,6.04
2023-04-07T06:55:33.851Z,6.05
2023-04-07T06:58:04.141Z,6.08
2023-04-07T07:00:34.114Z,6.19
2023-04-07T07:03:06.442Z,6.57
2023-04-07T07:05:37.635Z,6.17
2023-04-07T07:08:08.154Z,6.55
2023-04-07T07:10:38.799Z,6.64
2023-04-07T07:13:08.854Z,6.52
2023-04-07T07:15:39.137Z,6.69
2023-04-07T07:18:11.426Z,6.50
2023-04-07T07:20:41.689Z,6.74
2023-04-07T07:23:11.916Z,6.92
2023-04-07T07:25:42.801Z,7.00
2023-04-07T07:28:12.772Z,7.30
2023-04-07T07:30:44.067Z,7.20
2023-04-07T07:33:15.763Z,7.33
2023-04-07T07:35:45.859Z,7.15
2023-04-07T07:38:15.853Z,7.52
2023-04-07T07:40:48.088Z,7.53
2023-04-07T07:43:19.346Z,7.36
2023-04-07T07:45:50.302Z,7.65
2023-04-07T07:48:21.535Z,7.93
2023-04-07T07:50:52.578Z,8.12
2023-04-07T07:53:23.048Z,8.07
2023-04-07T07:55:53.620Z,8.17
2023-04-07T07:58:23.747Z,8.17
2023-04-07T08:00:54.340Z,8.36
2023-04-07T08:03:26.595Z,8.46
2023-04-07T08:05:57.166Z,8.95
2023-04-07T08:08:28.501Z,9.14
2023-04-07T08:10:58.465Z,9.11
2023-04-07T08:13:29.140Z,9.23
2023-04-07T08:16:00.218Z,9.34
2023-04-07T08:18:32.693Z,9.52
2023-04-07T08:21:07.075Z,9.39
2023-04-07T08:23:37.186Z,9.55
2023-04-07T08:26:07.335Z,9.56
2023-04-07T08:28:37.957Z,9.70
2023-04-07T08:31:09.304Z,9.95
2023-04-07T08:33:41.306Z,9.87
2023-04-07T08:36:14.012Z,9.89
2023-04-07T08:38:45.486Z,9.92
2023-04-07T08:41:23.625Z,10.29
2023-04-07T08:43:55.547Z,9.93
2023-04-07T08:46:26.169Z,9.82
2023-04-07T08:48:59.394Z,9.86
2023-04-07T08:51:33.176Z,9.95
2023-04-07T08:54:09.059Z,9.99
2023-04-07T08:56:42.541Z,10.13
2023-04-07T08:59:15.034Z,10.45
2023-04-07T09:01:49.014Z,10.39
2023-04-07T09:04:23.236Z,10.65
2023-04-07T09:06:54.143Z,10.38
2023-04-07T09:09:25.242Z,10.43
2023-04-07T09:11:55.901Z,11.06
2023-04-07T09:14:26.639Z,10.75
2023-04-07T09:16:57.756Z,10.89
2023-04-07T09:19:31.366Z,10.92
2023-04-07T09:22:03.735Z,11.32
2023-04-07T09:24:35.226Z,11.40
2023-04-07T09:27:17.077Z,11.36
2023-04-07T09:29:52.141Z,11.43
2023-04-07T09:32:39.328Z,11.50
2023-04-07T09:35:12.868Z,11.83
2023-04-07T09:37:45.645Z,11.60
2023-04-07T09:40:29.538Z,11.91
2023-04-07T09:43:00.659Z,11.61
2023-04-07T09:45:35.740Z,11.80
2023-04-07T09:48:11.336Z,11.74
2023-04-07T09:50:46.409Z,11.91
2023-04-07T09:53:18.452Z,11.74
2023-04-07T09:55:50.364Z,11.85
2023-04-07T09:58:22.595Z,12.17
2023-04-07T10:00:54.855Z,11.79
2023-04-07T10:03:27.439Z,11.95
2023-04-07T10:06:00.164Z,12.04
2023-04-07T10:08:32.571Z,11.99
2023-04-07T10:11:04.695Z,11.91
2023-04-07T10:13:38.007Z,12.29
2023-04-07T10:16:11.096Z,12.07
2023-04-07T10:18:42.681Z,12.17
2023-04-07T10:21:15.865Z,12.71
2023-04-07T10:23:55.760Z,12.52
2023-04-07T10:26:31.135Z,12.86
2023-04-07T10:29:06.987Z,12.80
2023-04-07T10:31:38.377Z,13.05
2023-04-07T10:34:08.923Z,12.90
2023-04-07T10:37:11.228Z,12.65
2023-04-07T10:39:43.163Z,12.67
2023-04-07T10:42:44.429Z,12.56
2023-04-07T10:45:16.037Z,12.76
2023-04-07T10:48:13.743Z,12.70
2023-04-07T10:50:44.717Z,13.05
2023-04-07T10:53:18.058Z,13.14
2023-04-07T10:55:50.448Z,13.02
2023-04-07T10:58:23.181Z,13.22
2023-04-07T11:01:20.221Z,13.40
2023-04-07T11:04:00.547Z,13.63
2023-04-07T11:06:33.664Z,13.42
2023-04-07T11:09:06.622Z,13.56
2023-04-07T11:12:05.093Z,13.93
2023-04-07T11:14:38.383Z,13.99
2023-04-07T11:17:10.997Z,13.98
2023-04-07T11:19:54.795Z,13.94
2023-04-07T11:22:30.252Z,13.56
2023-04-07T11:25:02.734Z,13.84
2023-04-07T11:27:34.220Z,14.21
2023-04-07T11:30:07.329Z,14.48
2023-04-07T11:32:39.286Z,14.67
2023-04-07T11:35:11.578Z,15.02
2023-04-07T11:37:43.231Z,15.32
2023-04-07T11:40:17.309Z,15.22
2023-04-07T11:42:47.711Z,15.28
2023-04-07T11:45:23.023Z,15.58
2023-04-07T11:47:53.740Z,15.78
2023-04-07T11:50:43.644Z,15.94
2023-04-07T11:53:14.941Z,15.94
2023-04-07T11:55:48.114Z,16.63
2023-04-07T11:58:18.226Z,16.63
2023-04-07T12:00:58.417Z,16.76
2023-04-07T12:03:29.300Z,17.00
2023-04-07T12:06:00.198Z,16.85
2023-04-07T12:08:43.845Z,16.72
2023-04-07T12:11:15.820Z,16.57
2023-04-07T12:13:45.521Z,17.11
2023-04-07T12:16:15.482Z,17.58
2023-04-07T12:18:47.630Z,17.62
2023-04-07T12:21:18.170Z,17.29
2023-04-07T12:23:50.336Z,18.06
2023-04-07T12:26:27.340Z,17.83
2023-04-07T12:28:59.696Z,17.84
2023-04-07T12:31:31.657Z,17.52
2023-04-07T12:34:03.500Z,17.27
2023-04-07T12:36:41.211Z,17.29
2023-04-07T12:39:12.456Z,17.72
2023-04-07T12:41:45.868Z,18.00
2023-04-07T12:44:18.028Z,17.55
2023-04-07T12:46:48.364Z,17.34
2023-04-07T12:49:19.638Z,17.64
2023-04-07T12:51:51.171Z,17.27
2023-04-07T12:54:21.643Z,17.51
2023-04-07T12:56:53.147Z,17.27
2023-04-07T12:59:26.990Z,17.83
2023-04-07T13:01:57.756Z,17.44
2023-04-07T13:04:31.278Z,17.84
2023-04-07T13:07:03.546Z,17.59
2023-04-07T13:09:34.476Z,18.39
2023-04-07T13:12:08.121Z,17.85
2023-04-07T13:14:49.294Z,17.92
2023-04-07T13:17:29.260Z,17.53
2023-04-07T13:19:59.671Z,18.15
2023-04-07T13:22:30.864Z,18.61
2023-04-07T13:25:02.045Z,18.79
2023-04-07T13:27:34.761Z,18.77
2023-04-07T13:30:04.980Z,18.87
2023-04-07T13:32:35.444Z,18.66
2023-04-07T13:35:06.135Z,18.38
2023-04-07T13:37:37.937Z,18.41
2023-04-07T13:40:10.777Z,18.36
2023-04-07T13:42:43.484Z,19.05
2023-04-07T13:45:14.791Z,18.84
2023-04-07T13:47:47.496Z,18.04
2023-04-07T13:50:17.655Z,18.12
2023-04-07T13:52:48.516Z,18.09
2023-04-07T13:55:21.015Z,18.54
2023-04-07T13:57:53.947Z,18.85
2023-04-07T14:00:25.211Z,19.14
2023-04-07T14:02:56.539Z,18.25
2023-04-07T14:05:27.144Z,18.62
2023-04-07T14:08:00.078Z,17.70
2023-04-07T14:10:30.699Z,17.96
2023-04-07T14:13:02.468Z,17.80
2023-04-07T14:15:32.738Z,18.39
2023-04-07T14:18:02.994Z,18.76
2023-04-07T14:20:34.013Z,18.00
2023-04-07T14:23:05.913Z,18.49
2023-04-07T14:25:35.679Z,18.20
2023-04-07T14:28:08.487Z,18.36
2023-04-07T14:30:39.551Z,18.12
2023-04-07T14:33:10.723Z,17.92
2023-04-07T14:35:42.015Z,17.75
2023-04-07T14:38:12.655Z,17.73
2023-04-07T14:40:43.163Z,17.43
2023-04-07T14:43:17.571Z,17.25
2023-04-07T14:45:48.052Z,17.39
2023-04-07T14:48:18.791Z,17.88
2023-04-07T14:51:02.267Z,16.90
2023-04-07T14:53:39.649Z,16.62
2023-04-07T14:56:10.668Z,16.37
2023-04-07T14:58:43.283Z,16.24
2023-04-07T15:01:13.478Z,16.28
2023-04-07T15:03:44.326Z,16.60
2023-04-07T15:06:18.242Z,16.62
2023-04-07T15:08:48.986Z,16.41
2023-04-07T15:11:20.203Z,16.38
2023-04-07T15:13:51.895Z,16.32
2023-04-07T15:16:24.875Z,16.09
2023-04-07T15:18:59.233Z,15.92
2023-04-07T15:21:32.001Z,15.84
2023-04-07T15:24:02.458Z,16.21
2023-04-07T15:26:32.871Z,16.65
2023-04-07T15:29:06.094Z,16.29
2023-04-07T15:31:36.698Z,16.10
2023-04-07T15:34:07.286Z,15.72
2023-04-07T15:36:38.047Z,16.02
2023-04-07T15:39:09.115Z,15.55
2023-04-07T15:41:39.284Z,15.46
2023-04-07T15:44:12.038Z,15.05
2023-04-07T15:46:42.481Z,15.28
2023-04-07T15:49:13.883Z,14.91
2023-04-07T15:51:44.415Z,15.20
2023-04-07T15:54:15.472Z,15.10
2023-04-07T15:56:46.203Z,15.16
2023-04-07T15:59:18.572Z,15.16
2023-04-07T16:01:48.576Z,15.02
2023-04-07T16:04:19.917Z,14.67
2023-04-07T16:06:50.721Z,14.22
2023-04-07T16:09:21.885Z,14.49
2023-04-07T16:11:52.748Z,14.42
2023-04-07T16:14:29.521Z,14.42
2023-04-07T16:16:59.543Z,14.02
2023-04-07T16:19:29.961Z,13.95
2023-04-07T16:22:00.097Z,14.43
2023-04-07T16:24:31.590Z,13.96
2023-04-07T16:27:04.163Z,13.98
2023-04-07T16:29:37.740Z,13.76
2023-04-07T16:32:09.212Z,13.94
2023-04-07T16:34:40.689Z,13.77
2023-04-07T16:37:11.106Z,13.68
2023-04-07T16:39:42.365Z,13.19
2023-04-07T16:42:12.601Z,13.15
2023-04-07T16:44:45.187Z,12.99
2023-04-07T16:47:15.465Z,12.73
2023-04-07T16:49:47.323Z,12.35
2023-04-07T16:52:20.536Z,12.75
2023-04-07T16:54:52.263Z,12.32
2023-04-07T16:57:23.244Z,12.25
2023-04-07T16:59:57.684Z,12.45
2023-04-07T17:02:29.880Z,12.55
2023-04-07T17:05:01.442Z,12.53
2023-04-07T17:07:31.639Z,12.49
2023-04-07T17:10:02.435Z,12.16
2023-04-07T17:12:32.833Z,12.32
2023-04-07T17:15:06.114Z,12.14
2023-04-07T17:17:39.541Z,11.90
2023-04-07T17:20:12.895Z,11.67
2023-04-07T17:22:45.083Z,11.60
2023-04-07T17:25:18.835Z,11.78
2023-04-07T17:27:49.896Z,11.82
2023-04-07T17:30:21.623Z,11.99
2023-04-07T17:32:53.357Z,11.71
2023-04-07T17:35:25.379Z,11.76
2023-04-07T17:37:56.764Z,11.86
2023-04-07T17:40:27.890Z,12.06
2023-04-07T17:42:58.590Z,11.70
2023-04-07T17:45:31.327Z,11.61
2023-04-07T17:48:05.718Z,11.60
2023-04-07T17:50:36.932Z,11.75
2023-04-07T17:53:08.611Z,11.69
2023-04-07T17:55:54.569Z,11.43
2023-04-07T17:58:25.495Z,11.06
2023-04-07T18:00:57.474Z,11.30
2023-04-07T18:03:27.961Z,10.90
2023-04-07T18:05:58.391Z,11.16
2023-04-07T18:08:30.771Z,11.17
2023-04-07T18:11:00.836Z,10.99
2023-04-07T18:13:32.267Z,11.07
2023-04-07T18:16:08.015Z,10.94
2023-04-07T18:18:47.117Z,11.07
2023-04-07T18:21:17.551Z,10.87
2023-04-07T18:23:48.592Z,10.95
2023-04-07T18:26:19.219Z,10.99
2023-04-07T18:28:48.865Z,11.06
2023-04-07T18:31:21.768Z,10.97
2023-04-07T18:33:51.810Z,11.02
2023-04-07T18:36:27.408Z,10.98
2023-04-07T18:38:57.814Z,10.90
2023-04-07T18:41:27.771Z,10.91
2023-04-07T18:43:58.712Z,10.90
2023-04-07T18:46:33.512Z,10.74
2023-04-07T18:49:04.863Z,10.79
2023-04-07T18:51:35.461Z,10.90
2023-04-07T18:54:06.662Z,10.93
2023-04-07T18:56:36.846Z,10.89
2023-04-07T18:59:07.910Z,10.78
2023-04-07T19:01:42.725Z,10.73
2023-04-07T19:04:13.433Z,10.91
2023-04-07T19:06:44.276Z,10.73
2023-04-07T19:09:14.821Z,10.84
2023-04-07T19:11:44.497Z,10.79
2023-04-07T19:14:14.604Z,10.58
2023-04-07T19:16:47.671Z,10.56
2023-04-07T19:19:18.038Z,10.37
2023-04-07T19:21:48.726Z,10.55
2023-04-07T19:24:19.375Z,10.59
2023-04-07T19:26:51.239Z,10.46
2023-04-07T19:29:21.689Z,10.25
2023-04-07T19:31:55.411Z,10.32
2023-04-07T19:34:28.025Z,10.29
2023-04-07T19:36:59.739Z,10.31
2023-04-07T19:39:30.809Z,10.29
2023-04-07T19:42:01.321Z,10.14
2023-04-07T19:44:34.698Z,9.93
2023-04-07T19:47:09.135Z,10.11
2023-04-07T19:49:39.495Z,10.02
2023-04-07T19:52:13.182Z,10.36
2023-04-07T19:54:43.666Z,10.35
2023-04-07T19:57:16.270Z,10.41
2023-04-07T19:59:47.127Z,10.04
2023-04-07T20:02:19.690Z,10.13
2023-04-07T20:04:50.191Z,10.21
2023-04-07T20:07:20.642Z,10.30
2023-04-07T20:09:52.189Z,10.01
2023-04-07T20:12:22.806Z,10.06
2023-04-07T20:14:53.250Z,9.87
2023-04-07T20:17:25.015Z,10.05
2023-04-07T20:19:56.868Z,9.89
2023-04-07T20:22:27.137Z,9.66
2023-04-07T20:24:57.329Z,9.71
2023-04-07T20:27:28.601Z,9.77
2023-04-07T20:29:59.295Z,9.73
2023-04-07T20:32:32.451Z,9.75
2023-04-07T20:35:03.681Z,9.97
2023-04-07T20:37:37.067Z,9.65
2023-04-07T20:40:09.596Z,9.68
2023-04-07T20:42:41.192Z,9.78
2023-04-07T20:45:15.788Z,9.65
2023-04-07T20:47:50.838Z,9.79
2023-04-07T20:50:21.340Z,9.83
2023-04-07T20:52:51.945Z,9.93
2023-04-07T20:55:22.189Z,9.71
2023-04-07T20:57:56.854Z,9.91
2023-04-07T21:00:28.812Z,10.04
2023-04-07T21:03:00.730Z,9.75
2023-04-07T21:05:31.577Z,9.56
2023-04-07T21:08:02.178Z,9.40
2023-04-07T21:10:33.467Z,9.49
2023-04-07T21:13:04.382Z,9.50
2023-04-07T21:15:35.672Z,9.49
2023-04-07T21:18:07.448Z,9.39
2023-04-07T21:20:39.275Z,9.55
2023-04-07T21:23:09.971Z,9.52
2023-04-07T21:25:40.209Z,9.45
2023-04-07T21:28:10.516Z,9.49
2023-04-07T21:30:43.308Z,9.43
2023-04-07T21:33:16.120Z,9.43
2023-04-07T21:35:49.458Z,9.23
2023-04-07T21:38:20.650Z,9.15
2023-04-07T21:40:51.182Z,9.44
2023-04-07T21:43:22.853Z,9.30
2023-04-07T21:45:55.224Z,9.02
2023-04-07T21:48:29.939Z,9.19
2023-04-07T21:51:00.209Z,8.97
2023-04-07T21:53:31.313Z,9.14
2023-04-07T21:56:01.065Z,9.36
2023-04-07T21:58:31.160Z,9.14
2023-04-07T22:01:02.756Z,9.25
2023-04-07T22:03:36.715Z,8.94
2023-04-07T22:06:07.604Z,9.25
2023-04-07T22:08:38.109Z,9.40
2023-04-07T22:11:09.094Z,9.13
2023-04-07T22:13:40.298Z,9.17
2023-04-07T22:16:10.837Z,9.15
2023-04-07T22:18:43.867Z,9.43
2023-04-07T22:21:13.899Z,9.25
2023-04-07T22:23:44.684Z,9.18
2023-04-07T22:26:14.881Z,9.07
2023-04-07T22:28:45.463Z,9.23
2023-04-07T22:31:15.772Z,8.98
2023-04-07T22:33:48.438Z,8.78
2023-04-07T22:36:18.564Z,8.83
2023-04-07T22:38:49.794Z,8.77
2023-04-07T22:41:22.013Z,8.64
2023-04-07T22:43:51.970Z,8.71
2023-04-07T22:46:23.116Z,8.85
2023-04-07T22:48:55.114Z,8.97
2023-04-07T22:51:26.216Z,8.74
2023-04-07T22:53:58.011Z,8.76
2023-04-07T22:56:31.075Z,9.20
2023-04-07T22:59:05.884Z,9.21
2023-04-07T23:01:37.429Z,9.04
2023-04-07T23:04:09.939Z,8.98
2023-04-07T23:06:43.959Z,8.96
2023-04-07T23:09:14.002Z,8.88
2023-04-07T23:11:45.315Z,8.94
2023-04-07T23:14:16.086Z,8.84
2023-04-07T23:16:46.778Z,9.00
2023-04-07T23:19:19.042Z,9.08
2023-04-07T23:21:49.980Z,9.35
2023-04-07T23:24:20.492Z,9.21
2023-04-07T23:26:51.116Z,9.24
2023-04-07T23:29:21.539Z,9.13
2023-04-07T23:31:52.992Z,9.00
2023-04-07T23:34:25.372Z,9.31
2023-04-07T23:36:56.294Z,9.26
2023-04-07T23:39:26.628Z,9.33
2023-04-07T23:41:57.853Z,9.03
2023-04-07T23:44:28.493Z,9.13
2023-04-07T23:46:58.447Z,9.11
2023-04-07T23:49:30.517Z,9.26
2023-04-07T23:52:00.915Z,9.22
2023-04-07T23:54:31.423Z,9.33
2023-04-07T23:57:01.924Z,9.32
2023-04-07T23:59:32.656Z,9.24
